Ride Results

Far-A-Way Saturday (26-03-2005)
Ride distance: 84.0 km

Outcomes - Far-A-Way Saturday (26-03-2005)
Division No. of Entries Retired / DNE Completed Withdrawn Ineligible V/O Percentage Completed
HW 19 - 7 3 1 8 36.84%
MW 37 - 28 3 - 6 75.68%
LW 36 - 28 1 - 7 77.78%
JN 15 - 13 1 - 1 86.67%
Totals 107 - 76 8 1 22 71.03%
Results - Far-A-Way Saturday (26-03-2005)
No. Rider Horse Place Time Leg Speeds Total
Km/Hr
H/R bpm
Heavyweight
20 David Horton Camelot Retreat Azada 1 5:11:00 17.8, 14.6 16.21 32, 46, 48 (Avg:47)
28 Stan Zischke Jehanna 2 6:41:00 13.2, 11.8 12.57 35, 41, 49 (Avg:45)
42 Mick Hill Harb Sparkling Miss 3 7:31:00 11.5, 10.7 11.18 48, 43, 55 (Avg:49)
64 Peter Casey Fred 4 7:44:00 10.7, 10.9 10.86 35, 44, 53 (Avg:48)
92 Ven Grasso Aloha Desert Mashi 5 8:14:00 10.7, 9.5 10.20 37, 43, 53 (Avg:48)
59 Alwyn Torenbeek Queensland Bloxsom 6 8:33:00 10.9, 8.7 9.82 35, 39, 54 (Avg:46)
1 Len Law Ming-Gah Teranus 7 8:36:00 9.6, 9.8 9.77 40, 54, 55 (Avg:54)
73 Neil Boardman Top Rail Heart Rate L2 0:00:00 10.9, 9.4 - 36, 44, 65 (Avg:54)
2 Malcolm Caldwell Celandra Ramazar Heart Rate L2 0:00:00 17.3, 12.4 - 39, 49, 63 (Avg:56)
66 Leticia Hart High Valour Heart Rate L2 0:00:00 10.9, 9.4 - 47, 50, 69 (Avg:59)
60 Jessica Irvine Mary-Anne Lame L2 0:00:00 10.9, 8.7 - 34, 40, 45 (Avg:42)
83 Selwyn Nix Dunbar Mahadik Lame L2 0:00:00 11.8, 32.5 - 30, 43, 55 (Avg:49)
30 David Anderson (DAD) Hillbrae Kaszan Lame L1 0:00:00 11.2 - 35, 44 (Avg:44)
101 Virginia Beard Longrun Silver Shallum Withdrawn L1 0:00:00 - - 32, 43 (Avg:43)
57 Craig Ellison Bashan Jehu Disqualified L1 0:00:00 9.0 - 36, 53 (Avg:53)
16 John Fry Dejay Princess Shirak Heart Rate L1 0:00:00 12.2 - 54, 70 (Avg:70)
36 Adrian Hope-Hodgetts Cobber Lame L1 0:00:00 15.1 - 35, 62 (Avg:62)
48 Simon Mueller Boaz Withdrawn L1 0:00:00 - - 45, 55 (Avg:55)
6 John Stewart Rushworth Ernie Miller Withdrawn P/R 0:00:00 - - 36
Middleweight
82 Robyn Edwards Lusitania 1 5:11:00 17.0, 15.3 16.21 36, 46, 54 (Avg:50)
5 Robert Sutton Zenith Park Quigley 2 5:23:00 16.7, 14.4 15.60 36, 46, 53 (Avg:49)
25 Sandra Isenmann El Khar 3 6:11:00 14.3, 12.7 13.58 33, 50, 60 (Avg:55)
24 Daniele O'Loughlin Just A Gigolo 3 6:11:00 14.3, 12.7 13.58 37, 44, 59 (Avg:51)
99 Emma Holland Kynnum Park Shaniko 5 6:24:00 13.4, 12.7 13.13 33, 45, 51 (Avg:48)
65 Lynne Drinkwater Red Gum Sundance 6 6:28:00 14.3, 11.6 12.99 37, 42, 56 (Avg:49)
94 Sue Crockett Brasch 7 6:44:00 12.8, 12.0 12.48 30, 43, 58 (Avg:50)
76 Ken Moir Botusa Park Tula's Lad 8 7:20:00 12.2, 10.6 11.45 43, 40, 49 (Avg:44)
97 Jennifer Gilbertson Tristram Rhapsody in Bronze 9 7:25:00 11.9, 10.6 11.33 34, 46, 48 (Avg:47)
104 Vivian Hollins Georgia 10 7:26:00 11.6, 10.8 11.30 39, 39, 49 (Avg:44)
103 Jenny Noffke Sailor 10 7:26:00 11.6, 10.8 11.30 33, 38, 48 (Avg:43)
71 Jackie Swan Longrun Anika 12 7:27:00 11.9, 10.5 11.28 30, 38, 44 (Avg:41)
31 Gerry Bergmans Aratahnes Galaxy 13 7:31:00 11.8, 10.4 11.18 33, 42, 45 (Avg:43)
38 Louise Mackey My Kentucky 13 7:31:00 11.5, 10.7 11.18 40, 41, 45 (Avg:43)
17 Jean Taylor Nerim 13 7:31:00 11.8, 10.4 11.18 34, 44, 44 (Avg:44)
85 Sally Summers Shahtaan 16 7:47:00 14.9, 8.0 10.79 34, 36, 38 (Avg:37)
43 Michael Taylor Safa Sonomie 17 7:54:00 11.5, 9.6 10.63 31, 36, 39 (Avg:37)
79 Jacky Clarke Kalkadoon Sequin 18 7:56:00 12.4, 8.9 10.59 35, 43, 55 (Avg:49)
22 Simone Krahnen Tallaroon October Whisper 19 7:57:00 11.0, 9.9 10.57 36, 40, 46 (Avg:43)
11 Libby Nichols Hillbrae Count Rebellion 20 8:10:00 11.2, 9.3 10.29 31, 46, 50 (Avg:48)
26 James Sheahan Woodbourne Edmund 21 8:14:00 10.7, 9.5 10.20 42, 45, 60 (Avg:52)
78 Kunio Kato Splendacrest Bodacious 22 8:15:00 10.6, 9.6 10.18 38, 50, 60 (Avg:55)
54 Raymond Griffiths Sergai 23 8:18:00 11.1, 9.1 10.12 45, 43, 51 (Avg:47)
14 Wendy Smith Midu Jacelle 24 8:21:00 11.8, 8.4 10.06 41, 45, 46 (Avg:45)
8 Bridget Macintyre Bella 25 8:41:00 10.2, 9.0 9.67 33, 50, 57 (Avg:53)
46 Karen Weeden Fazenda Shohan 25 8:41:00 10.2, 9.0 9.67 36, 48, 60 (Avg:54)
4 Nick Egan Riverlawn Cajun Star 27 8:47:00 9.1, 10.0 9.56 41, 44, 50 (Avg:47)
50 Elsie Newsome Castlebar Makers Mark 28 8:49:00 9.0, 10.1 9.53 38, 43, 48 (Avg:45)
100 Delma Clements Indiann Heart Rate L2 0:00:00 15.8, 10.8 - 29, 42, 64 (Avg:53)
75 Shigeru Ogawa Lilonda Count Richael Lame L2 0:00:00 12.2, 12.3 - 41, 46, 60 (Avg:53)
19 Greg Willoughby Dejay Sharene Heart Rate L2 0:00:00 10.3, 9.0 - 46, 48, 70 (Avg:59)
39 Yukio Yanadae Juniper Lady Jane Lame L2 0:00:00 11.5, 9.6 - 26, 36, 42 (Avg:39)
106 Joyce Corbett Murland Park Muriah Withdrawn L1 0:00:00 - - 34, 43 (Avg:43)
27 Jackie Gilks Aussie Indian Withdrawn L1 0:00:00 - - 43, 42 (Avg:42)
63 Albie Knight Moniet Made Withdrawn L1 0:00:00 - - 34, 40 (Avg:40)
33 Russell Rainbird Cooroora Solitare Heart Rate L1 0:00:00 10.9 - 55, 65 (Avg:65)
12 Robin Van der Wegen Captain's Creek Rupert Heart Rate L1 0:00:00 17.8 - 39, 60 (Avg:60)
Lightweight
81 Lauren Edwards Meltharina Magic 1 5:11:00 17.0, 15.3 16.21 30, 39, 49 (Avg:44)
80 Jeanna Maher Red Gum Trinket 1 5:11:00 17.8, 14.6 16.21 40, 47, 48 (Avg:47)
77 Melodie Churchill Nihal 3 5:40:00 22.0, 10.6 14.82 34, 55, 60 (Avg:57)
47 Anne Jones Carnarvon Cavalier 3 5:40:00 15.8, 13.7 14.82 30, 44, 53 (Avg:48)
29 Sue Jones Maysama Rishma 5 6:22:00 13.9, 12.3 13.19 31, 34, 55 (Avg:44)
102 Kylie Beard Careb Park Bently 6 6:37:00 12.7, 12.6 12.70 30, 46, 49 (Avg:47)
72 Vicki Gaillard Bahren Mangueiru Maharshi 7 6:44:00 12.8, 12.0 12.48 40, 48, 56 (Avg:52)
15 Verona Larkin Rebroff Killara 7 6:44:00 12.8, 11.9 12.48 33, 47, 60 (Avg:53)
93 Cassie Saunders Redwood Lodge Fire Power 7 6:44:00 12.8, 12.0 12.48 35, 53, 56 (Avg:54)
84 Derryn Nix Dunbar El Maestro 10 7:08:00 11.8, 11.6 11.78 35, 46, 56 (Avg:51)
35 Katrina Draegar Maya Amika 11 7:11:00 12.1, 11.1 11.69 35, 41, 44 (Avg:42)
105 Robyn Brazel Thomas 12 7:12:00 11.8, 11.4 11.67 37, 44, 50 (Avg:47)
44 Kaylea Maher Meltharina Mabran 13 7:24:00 12.0, 10.6 11.35 35, 40, 48 (Avg:44)
45 Ashlee Shafer Adbarina Shaklas Shadow 13 7:24:00 12.0, 10.6 11.35 43, 49, 54 (Avg:51)
34 Jeremy Robertson Narrawa Astron 15 7:25:00 11.9, 10.6 11.33 46, 42, 45 (Avg:43)
61 Julie Fletcher Echo 16 7:27:00 11.9, 10.5 11.28 38, 45, 56 (Avg:50)
41 Karen Hill Rivelyn Flicker 17 7:31:00 11.5, 10.7 11.18 33, 36, 53 (Avg:44)
89 Della Weier Jannor Sultan's Echo 18 7:47:00 10.6, 11.0 10.79 41, 42, 47 (Avg:44)
87 Amanda Weier Ashraf Sparkling Prince 18 7:47:00 14.9, 8.0 10.79 34, 48, 57 (Avg:52)
70 Belinda Gray Tee Dee 20 7:54:00 12.0, 9.3 10.63 41, 51, 53 (Avg:52)
69 Belinda Quirk Riversleigh Rage 20 7:54:00 12.0, 9.3 10.63 37, 42, 44 (Avg:43)
32 Jan Rainbird Kazkade 22 8:03:00 10.9, 9.9 10.43 52, 46, 43 (Avg:44)
91 Elise Gough Baja Willben Warrior 23 8:14:00 10.7, 9.5 10.20 41, 47, 57 (Avg:52)
74 Fumiko Ryu Splendacrest Larabee 24 8:15:00 10.6, 9.6 10.18 40, 46, 54 (Avg:50)
55 Dianne Luker Kalkadoon Vaquero 25 8:18:00 11.1, 9.1 10.12 38, 39, 49 (Avg:44)
18 Ellie Hill Lindall Kody 26 8:38:00 10.3, 9.0 9.73 35, 42, 58 (Avg:50)
3 Emma Kirby Bremervale Bandyt 27 8:47:00 9.1, 10.0 9.56 39, 45, 53 (Avg:49)
49 Bec Miller Aloha Zoom 28 8:49:00 9.0, 10.1 9.53 39, 46, 46 (Avg:46)
56 Deborar Leah Gale Double Jeopardy Heart Rate L2 0:00:00 11.1, 9.1 - 38, 51, 75 (Avg:63)
67 Molly Hall Spellmaster Heart Rate L2 0:00:00 10.6, 9.6 - 41, 48, 62 (Avg:55)
37 Christine Plucknett Montview Solitare Heart Rate L2 0:00:00 10.9, 9.1 - 38, 51, 66 (Avg:58)
13 Tylana Woodward Tallow Wood Sa Hassan Heart Rate L2 0:00:00 15.8, 10.8 - 31, 55, 63 (Avg:59)
9 Jocelyn Barnes Dandaloo Nazika Lame L1 0:00:00 16.8 - 35, 45 (Avg:45)
96 Julianne Farrell Ralvon Amigo Lame L1 0:00:00 10.5 - 31, 45 (Avg:45)
95 Angela Hawks Wimsey Liberty Withdrawn L1 0:00:00 - - 34, 47 (Avg:47)
7 Claire Stewart Gentle Touch Kazam Lame P/R 0:00:00 - - 31
Junior
40 Saasha Grogan Moondarra Cimeron 1 6:35:00 13.5, 11.9 12.76 39, 52, 56 (Avg:54)
68 Laura Finlayson Bullarto Fiorelli 2 6:49:00 12.2, 12.3 12.32 43, 48, 53 (Avg:50)
107 Shay Corbett Murland Park Mikahla 3 7:00:00 11.6, 12.4 12.00 34, 48, 55 (Avg:51)
98 Brooke Warner Tora August 4 7:25:00 11.9, 10.6 11.33 37, 47, 47 (Avg:47)
58 Nick Fry Mathew 5 7:38:00 11.5, 10.3 11.00 35, 42, 49 (Avg:45)
86 Andrew Abbas Echo Park Highlander 6 7:47:00 14.9, 8.0 10.79 32, 41, 46 (Avg:43)
90 Brianna Weier Thalara 6 7:47:00 12.5, 9.2 10.79 38, 44, 52 (Avg:48)
88 Terrence Weier Jayhal Ghost 6 7:47:00 14.9, 8.0 10.79 40, 43, 48 (Avg:45)
23 Erin Krahnen Pender Brook Kedor 9 7:57:00 11.0, 9.9 10.57 34, 49, 56 (Avg:52)
21 Colleen Krahnen Wywurri Starlight 9 7:57:00 11.0, 9.9 10.57 36, 47, 55 (Avg:51)
62 Kelsey Irvine Titanium 11 8:12:00 10.7, 9.7 10.24 47, 38, 38 (Avg:38)
52 Tasha Jeremy Zaccheus 12 8:49:00 9.0, 10.1 9.53 47, 54, 60 (Avg:57)
53 Jasmine Shields Coolahlee Park Ranal 12 8:49:00 9.0, 10.1 9.53 34, 45, 50 (Avg:47)
10 Ashleigh Nichols Tobinlee Ishmale Heart Rate L2 0:00:00 11.2, 9.3 - 34, 49, 67 (Avg:58)
51 Nikita Ellison Tarwarri Sharhim Withdrawn L1 0:00:00 - - 36, 46 (Avg:46)